Time;durP1;ratioP1;P1;durP2;ratioP2;P2;SDS_P1;SDS_P2;PMS_P1;PMS_P2;Temp;Humidity;BMP_temperature;BMP_pressure;BME280_temperature;BME280_humidity;BME280_pressure;Samples;Min_cycle;Max_cycle;Signal;HPM_P1;HPM_P2
2021/07/21 00:00:28;;;;;;;1.98;0.70;;;24.90;32.80;;;;;;4144811;28;20025;-47
2021/07/21 00:02:30;;;;;;;1.17;0.60;;;25.00;32.50;;;;;;4146650;28;20052;-45
2021/07/21 00:04:33;;;;;;;0.70;0.63;;;25.10;32.30;;;;;;4146279;28;20036;-48
2021/07/21 00:06:35;;;;;;;1.02;0.63;;;25.20;32.10;;;;;;4146760;28;20029;-52
2021/07/21 00:08:37;;;;;;;1.35;0.70;;;25.30;31.90;;;;;;4146949;28;20471;-45
2021/07/21 00:10:40;;;;;;;0.80;0.60;;;25.50;31.60;;;;;;4146930;28;20057;-51
2021/07/21 00:15:06;;;;;;;1.48;0.75;;;25.60;31.40;;;;;;4147141;28;20307;-47
2021/07/21 00:17:19;;;;;;;1.33;0.70;;;25.70;31.20;;;;;;4145883;28;21630;-45
2021/07/21 00:21:41;;;;;;;1.23;0.60;;;25.80;30.90;;;;;;4147466;28;20453;-45
2021/07/21 00:23:43;;;;;;;1.75;0.95;;;26.00;31.00;;;;;;4144408;28;20047;-48
2021/07/21 00:25:46;;;;;;;1.00;0.70;;;26.10;31.10;;;;;;4146035;28;20554;-48
2021/07/21 00:27:49;;;;;;;1.58;0.68;;;26.10;30.90;;;;;;4146506;28;20261;-51
2021/07/21 00:29:51;;;;;;;1.08;0.68;;;26.30;31.00;;;;;;4146038;28;20422;-46
2021/07/21 00:31:53;;;;;;;0.90;0.60;;;26.40;30.90;;;;;;4145297;28;20442;-52
2021/07/21 00:33:55;;;;;;;0.80;0.60;;;26.50;31.00;;;;;;4145981;28;20041;-50
2021/07/21 00:35:58;;;;;;;1.15;0.70;;;26.60;31.00;;;;;;4146908;28;20150;-46
2021/07/21 00:38:00;;;;;;;0.93;0.65;;;26.60;31.10;;;;;;4148354;28;20040;-50
2021/07/21 00:40:04;;;;;;;2.08;0.85;;;26.70;31.80;;;;;;4149442;28;20108;-50
2021/07/21 00:42:06;;;;;;;0.77;0.45;;;26.50;32.90;;;;;;4147554;28;20500;-47
2021/07/21 00:44:08;;;;;;;1.50;0.80;;;26.20;33.20;;;;;;4150263;28;20028;-49
2021/07/21 00:46:10;;;;;;;1.70;0.75;;;25.90;33.60;;;;;;4147852;28;20171;-46
2021/07/21 00:48:12;;;;;;;1.45;0.70;;;25.70;32.90;;;;;;4146280;28;20625;-51
2021/07/21 00:50:14;;;;;;;2.38;0.70;;;25.70;32.70;;;;;;4147027;28;21339;-53
2021/07/21 00:52:17;;;;;;;1.48;0.80;;;25.80;32.30;;;;;;4149274;28;20060;-48
2021/07/21 00:54:23;;;;;;;2.28;1.00;;;25.90;32.10;;;;;;4146805;28;21775;-49
2021/07/21 00:56:25;;;;;;;1.00;0.70;;;26.10;31.80;;;;;;4146453;28;20430;-53
2021/07/21 00:58:27;;;;;;;0.70;0.52;;;26.30;31.60;;;;;;4147395;28;20044;-50
2021/07/21 01:00:30;;;;;;;1.05;0.57;;;26.30;31.90;;;;;;4146960;28;20447;-49
2021/07/21 01:02:32;;;;;;;0.93;0.55;;;26.30;32.60;;;;;;4144642;28;20568;-50
2021/07/21 01:04:37;;;;;;;1.38;0.82;;;26.10;33.50;;;;;;4145123;28;20398;-51
2021/07/21 01:06:39;;;;;;;1.85;0.80;;;25.90;33.90;;;;;;4145880;28;20543;-49
2021/07/21 01:08:41;;;;;;;1.30;0.80;;;25.70;33.90;;;;;;4147087;28;20512;-48
2021/07/21 01:10:50;;;;;;;0.93;0.82;;;25.60;33.20;;;;;;4147444;28;20812;-48
2021/07/21 01:13:06;;;;;;;1.58;0.80;;;25.50;32.80;;;;;;4146078;28;20339;-46
2021/07/21 01:15:19;;;;;;;1.25;0.75;;;25.70;32.40;;;;;;4146454;28;20115;-49
2021/07/21 01:17:27;;;;;;;2.15;0.90;;;25.90;32.00;;;;;;4148333;28;20025;-48
2021/07/21 01:19:52;;;;;;;0.85;0.68;;;26.10;32.30;;;;;;4145375;28;20120;-48
2021/07/21 01:22:13;;;;;;;0.80;0.50;;;26.20;32.80;;;;;;4139736;28;20041;-47
2021/07/21 01:24:49;;;;;;;1.80;0.88;;;26.00;33.30;;;;;;4145593;28;20582;-44
2021/07/21 01:27:03;;;;;;;0.93;0.80;;;25.80;34.00;;;;;;4146359;28;20234;-48
2021/07/21 01:29:06;;;;;;;0.80;0.57;;;25.60;34.70;;;;;;4145655;28;20113;-47
2021/07/21 01:31:13;;;;;;;1.30;0.88;;;25.40;33.80;;;;;;4143680;28;20037;-47
2021/07/21 01:33:16;;;;;;;1.48;0.80;;;25.40;33.30;;;;;;4148617;28;20039;-50
2021/07/21 01:35:26;;;;;;;1.02;0.77;;;25.50;32.80;;;;;;4143706;28;20087;-53
2021/07/21 01:37:30;;;;;;;1.05;0.70;;;25.70;32.50;;;;;;4148668;28;20036;-49
2021/07/21 01:39:42;;;;;;;1.92;0.82;;;25.90;32.80;;;;;;4144816;28;20537;-48
2021/07/21 01:41:49;;;;;;;1.48;0.82;;;25.90;33.30;;;;;;4149039;28;20037;-53
2021/07/21 01:43:58;;;;;;;0.95;0.73;;;25.70;33.90;;;;;;4145809;28;20442;-50
2021/07/21 01:46:02;;;;;;;1.25;0.70;;;25.60;33.20;;;;;;4147618;28;20102;-47
2021/07/21 01:48:07;;;;;;;1.75;0.90;;;25.60;32.90;;;;;;4146000;28;20067;-52
2021/07/21 01:50:10;;;;;;;1.30;0.95;;;25.70;32.60;;;;;;4147427;28;20090;-49
2021/07/21 01:52:16;;;;;;;2.30;0.90;;;25.90;32.30;;;;;;4145715;28;20596;-48
2021/07/21 01:54:19;;;;;;;1.42;0.90;;;26.10;32.10;;;;;;4147269;28;20037;-45
2021/07/21 01:56:23;;;;;;;1.35;0.60;;;26.40;31.80;;;;;;4146326;28;20041;-54
2021/07/21 01:58:28;;;;;;;0.85;0.60;;;26.60;31.70;;;;;;4148974;28;20539;-48
2021/07/21 02:00:31;;;;;;;1.98;0.90;;;26.70;32.30;;;;;;4146036;28;20036;-47
2021/07/21 02:02:33;;;;;;;3.45;0.90;;;26.60;32.20;;;;;;4145699;28;20188;-49
2021/07/21 02:04:37;;;;;;;1.55;0.80;;;26.50;32.00;;;;;;4145783;28;20143;-48
2021/07/21 02:06:40;;;;;;;1.73;0.80;;;26.50;31.90;;;;;;4144137;28;20093;-51
2021/07/21 02:08:42;;;;;;;1.52;0.63;;;26.60;32.50;;;;;;4146257;28;20874;-52
2021/07/21 02:10:45;;;;;;;1.50;0.68;;;26.50;33.30;;;;;;4147287;28;20086;-45
2021/07/21 02:12:50;;;;;;;3.13;1.13;;;26.30;34.20;;;;;;4145655;28;20041;-45
2021/07/21 02:14:53;;;;;;;1.70;0.90;;;26.10;34.60;;;;;;4145578;28;20045;-45
2021/07/21 02:16:57;;;;;;;2.83;0.80;;;25.90;35.10;;;;;;4145221;28;20488;-48
2021/07/21 02:19:01;;;;;;;2.70;0.80;;;25.80;35.60;;;;;;4147240;28;20044;-49
2021/07/21 02:21:05;;;;;;;2.92;1.05;;;25.70;34.80;;;;;;4146491;28;20055;-52
2021/07/21 02:23:08;;;;;;;3.13;0.98;;;25.60;35.60;;;;;;4144707;28;20445;-50
2021/07/21 02:25:11;;;;;;;1.52;0.65;;;25.40;35.80;;;;;;4151290;28;20084;-48
2021/07/21 02:27:14;;;;;;;1.50;0.82;;;25.30;36.30;;;;;;4149592;28;20127;-46
2021/07/21 02:29:16;;;;;;;2.42;0.80;;;25.20;36.50;;;;;;4147999;28;20033;-48
2021/07/21 02:31:30;;;;;;;3.80;0.93;;;25.10;37.00;;;;;;4147944;28;20328;-48
2021/07/21 02:33:44;;;;;;;1.60;0.82;;;25.00;36.60;;;;;;4147004;28;20104;-48
2021/07/21 02:35:47;;;;;;;3.13;0.98;;;24.90;35.90;;;;;;4146888;28;20040;-50
2021/07/21 02:37:50;;;;;;;3.88;1.30;;;24.80;35.20;;;;;;4151339;28;20919;-48
2021/07/21 02:39:54;;;;;;;4.32;1.30;;;24.60;35.20;;;;;;4151278;28;20032;-51
2021/07/21 02:41:56;;;;;;;3.25;1.40;;;24.50;35.80;;;;;;4150930;28;20040;-47
2021/07/21 02:43:58;;;;;;;1.88;1.23;;;24.40;36.50;;;;;;4148947;28;20715;-46
2021/07/21 02:46:00;;;;;;;1.97;1.20;;;24.30;36.20;;;;;;4151781;28;20033;-48
2021/07/21 02:48:06;;;;;;;4.57;1.33;;;24.20;36.90;;;;;;4154511;28;20338;-49
2021/07/21 02:50:10;;;;;;;2.70;1.15;;;24.20;37.20;;;;;;4155675;28;20025;-45
2021/07/21 02:52:31;;;;;;;3.17;1.10;;;24.20;37.50;;;;;;4157897;28;20136;-46
2021/07/21 02:55:11;;;;;;;2.30;1.08;;;24.10;38.00;;;;;;4157881;28;20040;-48
2021/07/21 02:57:36;;;;;;;2.60;1.30;;;24.00;38.00;;;;;;4156674;28;20052;-48
2021/07/21 03:00:01;;;;;;;3.50;1.42;;;24.00;38.30;;;;;;4145928;28;20054;-46
2021/07/21 03:02:05;;;;;;;2.28;1.00;;;23.90;38.10;;;;;;4148513;28;20165;-46
2021/07/21 03:04:07;;;;;;;2.58;1.40;;;23.80;38.10;;;;;;4148671;28;20033;-47
2021/07/21 03:06:10;;;;;;;3.77;1.27;;;23.80;38.30;;;;;;4150832;28;20025;-51
2021/07/21 03:08:12;;;;;;;;;;;23.70;38.40;;;;;;4147281;28;20098;-47
2021/07/21 03:10:16;;;;;;;2.45;1.50;;;23.70;38.10;;;;;;4148250;28;20008;-48
2021/07/21 03:12:20;;;;;;;2.35;1.20;;;23.60;37.80;;;;;;4149774;28;20040;-45
2021/07/21 03:14:23;;;;;;;3.40;1.10;;;23.50;37.90;;;;;;4150708;28;20032;-47
2021/07/21 03:16:30;;;;;;;4.40;1.67;;;23.50;38.50;;;;;;4148441;28;20041;-45
2021/07/21 03:18:33;;;;;;;3.30;1.70;;;23.40;38.60;;;;;;4149218;28;20243;-52
2021/07/21 03:20:36;;;;;;;4.10;1.45;;;23.40;38.60;;;;;;4148351;28;20033;-50
2021/07/21 03:22:40;;;;;;;4.77;1.50;;;23.30;38.50;;;;;;4146103;28;20393;-48
2021/07/21 03:24:44;;;;;;;2.78;1.38;;;23.30;39.00;;;;;;4148302;28;20777;-51
2021/07/21 03:26:48;;;;;;;4.20;1.45;;;23.30;39.00;;;;;;4148973;28;20029;-48
2021/07/21 03:28:54;;;;;;;1.52;1.20;;;23.30;39.10;;;;;;4149863;28;20033;-49
2021/07/21 03:30:56;;;;;;;2.15;1.15;;;23.20;39.10;;;;;;4146856;28;20037;-47
2021/07/21 03:32:59;;;;;;;2.90;1.30;;;23.20;38.90;;;;;;4145466;28;20025;-47
2021/07/21 03:35:03;;;;;;;4.53;1.15;;;23.20;39.20;;;;;;4144957;28;20461;-49
2021/07/21 03:37:09;;;;;;;3.35;1.30;;;23.10;39.10;;;;;;4147411;28;20541;-46
2021/07/21 03:39:13;;;;;;;3.47;1.60;;;23.10;39.20;;;;;;4147248;28;20358;-49
2021/07/21 03:41:15;;;;;;;1.75;1.10;;;23.10;39.20;;;;;;4148371;28;20040;-52
2021/07/21 03:43:19;;;;;;;3.00;1.40;;;23.00;39.30;;;;;;4147699;28;20140;-52
2021/07/21 03:45:24;;;;;;;2.25;1.25;;;23.00;39.40;;;;;;4145149;28;20033;-45
2021/07/21 03:47:27;;;;;;;3.67;1.40;;;23.00;39.40;;;;;;4144708;28;20548;-49
2021/07/21 03:49:30;;;;;;;2.45;1.50;;;23.00;39.50;;;;;;4149040;28;20029;-46
2021/07/21 03:51:34;;;;;;;2.17;1.30;;;23.00;39.20;;;;;;4148854;28;20075;-47
2021/07/21 03:53:36;;;;;;;4.00;1.30;;;23.00;39.30;;;;;;4146625;28;20467;-46
2021/07/21 03:55:40;;;;;;;3.42;1.50;;;23.00;39.30;;;;;;4148135;28;20367;-53
2021/07/21 03:57:46;;;;;;;4.80;1.40;;;23.00;39.20;;;;;;4148313;28;20071;-46
2021/07/21 03:59:49;;;;;;;3.03;1.40;;;23.00;38.80;;;;;;4147799;28;20087;-47
2021/07/21 04:01:56;;;;;;;3.40;1.27;;;22.90;39.60;;;;;;4144551;28;20505;-53
2021/07/21 04:04:00;;;;;;;2.10;1.27;;;22.90;39.30;;;;;;4148467;28;20028;-50
2021/07/21 04:06:03;;;;;;;2.58;1.20;;;22.90;39.30;;;;;;4147788;28;20756;-47
2021/07/21 04:08:05;;;;;;;;;;;22.90;39.60;;;;;;4147653;28;20066;-47
2021/07/21 04:10:09;;;;;;;3.22;1.38;;;22.90;39.70;;;;;;4148414;28;19920;-47
2021/07/21 04:12:13;;;;;;;3.08;1.45;;;22.90;39.80;;;;;;4149139;28;20551;-45
2021/07/21 04:14:17;;;;;;;2.58;1.23;;;22.90;39.80;;;;;;4148053;28;20754;-45
2021/07/21 04:16:20;;;;;;;3.75;1.35;;;22.90;39.80;;;;;;4148203;28;20401;-48
2021/07/21 04:18:24;;;;;;;2.72;1.15;;;22.90;39.80;;;;;;4149416;28;20517;-47
2021/07/21 04:20:27;;;;;;;3.78;1.02;;;22.90;40.00;;;;;;4149278;28;20037;-47
2021/07/21 04:22:30;;;;;;;2.65;1.35;;;22.80;40.00;;;;;;4148749;28;20055;-46
2021/07/21 04:24:33;;;;;;;2.90;1.00;;;22.80;40.10;;;;;;4147975;28;20394;-52
2021/07/21 04:26:35;;;;;;;3.08;1.20;;;22.80;40.00;;;;;;4149823;28;20052;-45
2021/07/21 04:28:39;;;;;;;3.03;1.33;;;22.80;40.10;;;;;;4147884;28;20737;-50
2021/07/21 04:30:42;;;;;;;2.60;1.75;;;22.80;40.00;;;;;;4147684;28;20078;-45
2021/07/21 04:32:44;;;;;;;;;;;22.80;40.10;;;;;;4149327;28;20033;-44
2021/07/21 04:34:47;;;;;;;2.15;1.27;;;22.80;40.00;;;;;;4148583;28;19921;-45
2021/07/21 04:36:50;;;;;;;;;;;22.80;40.80;;;;;;4148304;28;20040;-50
2021/07/21 04:38:53;;;;;;;3.60;1.30;;;22.80;40.20;;;;;;4150381;28;20183;-47
2021/07/21 04:40:55;;;;;;;2.30;1.10;;;22.80;40.20;;;;;;4146448;28;20137;-50
2021/07/21 04:42:57;;;;;;;2.17;1.25;;;22.80;40.20;;;;;;4148094;28;20048;-49
2021/07/21 04:45:00;;;;;;;3.17;1.65;;;22.80;40.20;;;;;;4147888;28;20538;-47
2021/07/21 04:47:02;;;;;;;3.45;1.80;;;22.80;40.20;;;;;;4147006;28;20147;-49
2021/07/21 04:49:05;;;;;;;2.33;1.27;;;22.80;40.20;;;;;;4148777;28;20353;-47
2021/07/21 04:51:09;;;;;;;2.63;1.50;;;22.80;40.30;;;;;;4148115;28;20309;-49
2021/07/21 04:53:12;;;;;;;3.83;1.50;;;22.80;40.30;;;;;;4147875;28;20041;-49
2021/07/21 04:55:15;;;;;;;1.60;1.25;;;22.80;40.30;;;;;;4148790;28;20493;-48
2021/07/21 04:57:22;;;;;;;2.40;1.30;;;22.90;40.40;;;;;;4148968;28;20037;-51
2021/07/21 04:59:24;;;;;;;3.67;1.50;;;22.90;40.20;;;;;;4146668;28;20041;-48
2021/07/21 05:01:26;;;;;;;4.03;1.40;;;22.80;40.20;;;;;;4147925;28;20446;-52
2021/07/21 05:03:28;;;;;;;3.00;1.40;;;22.80;40.20;;;;;;4147700;28;20044;-50
2021/07/21 05:05:30;;;;;;;2.40;1.40;;;22.90;40.30;;;;;;4147870;28;20033;-48
2021/07/21 05:07:33;;;;;;;1.80;1.20;;;22.80;40.30;;;;;;4149702;28;20067;-49
2021/07/21 05:09:35;;;;;;;3.40;1.73;;;22.80;40.40;;;;;;4148663;28;20494;-49
2021/07/21 05:11:37;;;;;;;3.13;1.50;;;22.80;40.30;;;;;;4148985;28;20033;-47
2021/07/21 05:13:40;;;;;;;3.05;1.50;;;22.80;40.30;;;;;;4148518;28;20029;-48
2021/07/21 05:15:45;;;;;;;2.17;1.40;;;22.80;40.40;;;;;;4146277;28;20094;-47
2021/07/21 05:17:47;;;;;;;2.83;1.40;;;22.80;40.40;;;;;;4147385;28;20130;-47
2021/07/21 05:19:49;;;;;;;2.85;1.63;;;22.80;40.50;;;;;;4146053;28;20036;-49
2021/07/21 05:21:52;;;;;;;3.10;1.67;;;22.70;40.40;;;;;;4147139;28;20025;-47
2021/07/21 05:23:55;;;;;;;2.80;1.70;;;22.70;40.60;;;;;;4149813;28;20768;-49
2021/07/21 05:25:58;;;;;;;3.38;1.85;;;22.70;40.70;;;;;;4147780;28;20032;-48
2021/07/21 05:28:02;;;;;;;3.85;1.70;;;22.70;40.60;;;;;;4148171;28;20052;-46
2021/07/21 05:30:06;;;;;;;3.47;2.00;;;22.60;40.60;;;;;;4147234;28;20028;-50
2021/07/21 05:32:08;;;;;;;2.65;1.55;;;22.60;40.70;;;;;;4147105;28;20638;-48
2021/07/21 05:34:10;;;;;;;4.15;1.77;;;22.60;40.80;;;;;;4147140;28;20529;-48
2021/07/21 05:36:12;;;;;;;3.42;1.77;;;22.60;40.90;;;;;;4148430;28;20549;-48
2021/07/21 05:38:16;;;;;;;4.32;1.83;;;22.60;40.90;;;;;;4148049;28;20114;-51
2021/07/21 05:40:18;;;;;;;4.10;1.80;;;22.50;40.90;;;;;;4148387;28;20389;-47
2021/07/21 05:42:20;;;;;;;5.40;2.10;;;22.50;41.00;;;;;;4146333;28;20573;-50
2021/07/21 05:44:23;;;;;;;3.03;1.75;;;22.50;41.00;;;;;;4147162;28;20075;-47
2021/07/21 05:46:25;;;;;;;3.92;2.05;;;22.40;40.90;;;;;;4147971;28;20037;-49
2021/07/21 05:48:27;;;;;;;3.33;1.73;;;22.40;41.00;;;;;;4146713;28;20125;-47
2021/07/21 05:50:30;;;;;;;3.25;1.73;;;22.40;41.00;;;;;;4148898;28;20053;-50
2021/07/21 05:52:32;;;;;;;4.75;1.63;;;22.40;41.80;;;;;;4145469;28;20146;-50
2021/07/21 05:54:37;;;;;;;3.50;2.17;;;22.30;41.30;;;;;;4149240;28;20121;-49
2021/07/21 05:56:42;;;;;;;4.90;2.00;;;22.30;41.10;;;;;;4148445;28;20540;-48
2021/07/21 05:58:44;;;;;;;2.90;1.88;;;22.30;41.20;;;;;;4147024;28;20498;-48
2021/07/21 06:00:46;;;;;;;4.53;2.42;;;22.20;41.20;;;;;;4147771;28;20040;-47
2021/07/21 06:02:48;;;;;;;3.63;1.85;;;22.20;41.20;;;;;;4145119;28;20175;-50
2021/07/21 06:04:51;;;;;;;3.17;1.90;;;22.10;41.20;;;;;;4147087;28;20056;-49
2021/07/21 06:06:53;;;;;;;7.47;2.30;;;22.20;40.90;;;;;;4145567;28;20075;-46
2021/07/21 06:08:55;;;;;;;2.88;1.85;;;22.10;40.50;;;;;;4149082;28;20265;-45
2021/07/21 06:10:57;;;;;;;8.30;2.22;;;22.00;40.50;;;;;;4148285;28;20333;-52
2021/07/21 06:13:00;;;;;;;3.28;2.03;;;22.00;40.80;;;;;;4145616;28;20455;-47
2021/07/21 06:15:03;;;;;;;3.22;1.90;;;22.00;40.80;;;;;;4147159;28;20673;-48
2021/07/21 06:17:05;;;;;;;4.80;1.92;;;22.00;40.80;;;;;;4146714;28;21759;-45
2021/07/21 06:19:08;;;;;;;3.17;1.80;;;21.90;40.80;;;;;;4148320;28;20059;-46
2021/07/21 06:21:11;;;;;;;2.92;1.73;;;21.90;41.00;;;;;;4147955;28;20048;-47
2021/07/21 06:23:13;;;;;;;3.53;2.05;;;21.90;41.10;;;;;;4145516;28;20082;-46
2021/07/21 06:25:16;;;;;;;4.17;2.43;;;21.80;41.10;;;;;;4146999;28;20083;-46
2021/07/21 06:27:18;;;;;;;5.35;2.35;;;21.90;41.30;;;;;;4146386;28;20306;-50
2021/07/21 06:29:21;;;;;;;4.15;2.25;;;21.80;41.20;;;;;;4146965;28;21171;-49
2021/07/21 06:31:23;;;;;;;4.03;2.20;;;21.80;41.30;;;;;;4146166;28;20033;-48
2021/07/21 06:33:25;;;;;;;4.13;2.40;;;21.80;41.50;;;;;;4145107;28;20336;-44
2021/07/21 06:35:27;;;;;;;4.10;2.50;;;21.70;41.40;;;;;;4148335;28;20044;-48
2021/07/21 06:37:29;;;;;;;3.53;2.72;;;21.70;41.60;;;;;;4146067;28;20087;-44
2021/07/21 06:39:31;;;;;;;6.03;3.70;;;21.70;41.60;;;;;;4146520;28;20228;-50
2021/07/21 06:41:33;;;;;;;7.97;3.45;;;21.70;41.70;;;;;;4148629;28;20036;-48
2021/07/21 06:43:35;;;;;;;5.15;3.45;;;21.60;41.60;;;;;;4146331;28;20749;-53
2021/07/21 06:45:38;;;;;;;5.05;3.80;;;21.60;42.30;;;;;;4147296;28;20526;-48
2021/07/21 06:47:40;;;;;;;5.30;4.78;;;21.60;41.60;;;;;;4147715;28;20142;-46
2021/07/21 06:49:42;;;;;;;5.80;4.65;;;21.50;41.80;;;;;;4146528;28;20856;-51
2021/07/21 06:51:44;;;;;;;6.18;5.57;;;21.50;41.80;;;;;;4148632;28;20025;-47
2021/07/21 06:53:46;;;;;;;6.20;5.60;;;21.40;41.90;;;;;;4147168;28;20036;-46
2021/07/21 06:55:48;;;;;;;7.05;6.35;;;21.40;42.00;;;;;;4146168;28;20120;-47
2021/07/21 06:57:51;;;;;;;7.30;6.70;;;21.40;42.80;;;;;;4145240;28;20033;-46
2021/07/21 06:59:53;;;;;;;7.68;7.05;;;21.30;42.20;;;;;;4145957;28;20871;-49
2021/07/21 07:01:55;;;;;;;8.65;7.90;;;21.30;42.40;;;;;;4146094;28;20074;-47
2021/07/21 07:03:57;;;;;;;8.70;8.00;;;21.30;42.50;;;;;;4145656;28;20111;-45
2021/07/21 07:06:01;;;;;;;9.02;8.27;;;21.20;42.50;;;;;;4147633;28;20354;-45
2021/07/21 07:08:03;;;;;;;10.18;9.38;;;21.20;42.50;;;;;;4147674;28;20041;-50
2021/07/21 07:10:07;;;;;;;11.38;10.48;;;21.20;43.30;;;;;;4148915;28;20122;-47
2021/07/21 07:12:09;;;;;;;11.63;10.82;;;21.10;42.70;;;;;;4152657;28;20067;-47
2021/07/21 07:14:11;;;;;;;11.70;10.80;;;21.10;42.70;;;;;;4150219;28;20322;-45
2021/07/21 07:16:14;;;;;;;12.75;11.95;;;;;;;;;;4150862;28;20119;-45
2021/07/21 07:18:16;;;;;;;13.50;12.55;;;;;;;;;;4150657;28;20032;-51
2021/07/21 07:20:18;;;;;;;15.13;14.05;;;;;;;;;;4155807;28;20052;-50
2021/07/21 07:22:20;;;;;;;14.88;13.80;;;;;;;;;;4157824;28;20045;-50
2021/07/21 07:24:22;;;;;;;15.15;14.07;;;;;;;;;;4157064;28;20119;-51
2021/07/21 07:26:25;;;;;;;15.57;14.48;;;;;;;;;;4155816;28;20067;-49
2021/07/21 07:28:27;;;;;;;16.08;14.88;;;;;;;;;;4159756;28;20029;-46
2021/07/21 07:30:29;;;;;;;14.63;13.63;;;;;;;;;;4150940;28;20545;-46
2021/07/21 07:32:31;;;;;;;14.95;13.93;;;;;;;;;;4148750;28;20033;-47
2021/07/21 07:34:33;;;;;;;14.93;13.82;;;;;;;;;;4151232;28;20588;-48
2021/07/21 07:36:37;;;;;;;15.85;14.63;;;;;;;;;;4151795;28;20114;-51
2021/07/21 07:38:39;;;;;;;15.80;14.80;;;;;;;;;;4148071;28;20079;-50
2021/07/21 07:40:42;;;;;;;13.43;12.50;;;;;;;;;;4149074;28;20029;-45
2021/07/21 07:42:44;;;;;;;13.68;12.75;;;;;;;;;;4148144;28;20124;-46
2021/07/21 07:44:46;;;;;;;14.23;13.20;;;;;;;;;;4145506;28;20497;-45
2021/07/21 07:46:48;;;;;;;13.90;12.90;;;;;;;;;;4147101;28;20025;-46
2021/07/21 07:48:50;;;;;;;14.70;13.70;;;;;;;;;;4146815;28;20037;-45
2021/07/21 07:50:53;;;;;;;14.60;13.45;;;;;;;;;;4147012;28;20076;-50
2021/07/21 07:52:57;;;;;;;14.05;13.05;;;;;;;;;;4150605;28;20589;-47
2021/07/21 07:54:59;;;;;;;13.18;12.27;;;;;;;;;;4148764;28;20344;-51
2021/07/21 07:57:01;;;;;;;13.15;12.25;;;;;;;;;;4150741;28;20595;-45
2021/07/21 07:59:03;;;;;;;13.27;12.27;;;;;;;;;;4145132;28;21194;-50
2021/07/21 08:01:05;;;;;;;12.70;11.90;;;;;;;;;;4147029;28;20045;-49
2021/07/21 08:03:07;;;;;;;12.60;11.68;;;;;;;;;;4151070;28;20052;-46
2021/07/21 08:05:09;;;;;;;11.55;10.65;;;;;;;;;;4145227;28;20029;-49
2021/07/21 08:07:11;;;;;;;11.63;10.73;;;;;;;;;;4146110;28;21715;-49
2021/07/21 08:09:13;;;;;;;11.57;10.68;;;;;;;;;;4147628;28;20554;-46
2021/07/21 08:11:16;;;;;;;10.68;9.88;;;;;;;;;;4147099;28;20069;-50
2021/07/21 08:13:22;;;;;;;11.27;10.48;;;;;;;;;;4148286;28;20569;-55
2021/07/21 08:15:24;;;;;;;12.15;11.25;;;;;;;;;;4146646;28;20075;-47
2021/07/21 08:17:26;;;;;;;11.05;10.23;;;;;;;;;;4143962;28;20064;-49
2021/07/21 08:19:28;;;;;;;11.05;10.20;;;;;;;;;;4145017;28;20041;-54
2021/07/21 08:21:30;;;;;;;10.75;9.98;;;;;;;;;;4146671;28;20179;-47
2021/07/21 08:23:32;;;;;;;9.95;9.25;;;;;;;;;;4145758;28;20449;-49
2021/07/21 08:25:35;;;;;;;10.93;10.02;;;;;;;;;;4146859;28;20029;-52
2021/07/21 08:27:37;;;;;;;10.05;9.20;;;;;;;;;;4145963;28;20547;-46
2021/07/21 08:29:39;;;;;;;9.20;8.55;;;;;;;;;;4144436;28;20834;-46
2021/07/21 08:31:41;;;;;;;8.82;8.02;;;;;;;;;;4144400;28;20039;-47
2021/07/21 08:33:44;;;;;;;24.88;8.40;;;;;;;;;;4147662;28;20565;-47
2021/07/21 08:35:46;;;;;;;;;;;21.00;42.80;;;;;;4146137;28;20102;-49
2021/07/21 08:37:48;;;;;;;8.15;7.55;;;19.90;44.20;;;;;;4146321;28;19955;-54
2021/07/21 08:39:50;;;;;;;9.77;7.87;;;19.80;44.40;;;;;;4142376;28;20037;-51
2021/07/21 08:41:53;;;;;;;7.80;7.20;;;19.80;44.60;;;;;;4144921;28;20149;-50
2021/07/21 08:43:56;;;;;;;7.57;6.85;;;19.80;44.60;;;;;;4144722;28;20310;-51
2021/07/21 08:45:59;;;;;;;7.30;6.60;;;19.80;44.60;;;;;;4144965;28;20148;-53
2021/07/21 08:48:02;;;;;;;7.30;6.70;;;19.80;44.60;;;;;;4144677;28;20032;-50
2021/07/21 08:50:06;;;;;;;6.75;6.15;;;19.70;44.70;;;;;;4145960;28;20037;-53
2021/07/21 08:52:09;;;;;;;7.05;6.35;;;19.70;44.80;;;;;;4145510;28;20103;-46
2021/07/21 08:54:11;;;;;;;6.63;6.03;;;19.70;45.00;;;;;;4143101;28;20174;-46
2021/07/21 08:56:13;;;;;;;7.38;6.68;;;19.70;44.90;;;;;;4144825;28;20032;-50
2021/07/21 08:58:20;;;;;;;6.80;6.20;;;19.70;45.00;;;;;;4143039;28;20033;-50
2021/07/21 09:00:22;;;;;;;6.13;5.65;;;19.70;45.10;;;;;;4144164;28;21561;-53
2021/07/21 09:02:25;;;;;;;6.90;5.60;;;19.70;45.10;;;;;;4145287;28;20084;-51
2021/07/21 09:04:27;;;;;;;5.78;5.18;;;19.60;44.60;;;;;;4146023;28;20464;-51
2021/07/21 09:06:29;;;;;;;6.38;5.72;;;19.60;45.10;;;;;;4144736;28;20045;-49
2021/07/21 09:08:34;;;;;;;6.30;5.70;;;19.60;45.30;;;;;;4144876;28;20396;-51
2021/07/21 09:10:36;;;;;;;5.25;4.80;;;19.60;45.40;;;;;;4145326;28;20077;-48
2021/07/21 09:12:42;;;;;;;6.55;5.00;;;19.60;45.40;;;;;;4145767;28;20576;-54
2021/07/21 09:14:45;;;;;;;5.95;5.10;;;19.50;45.40;;;;;;4145862;28;20089;-49
2021/07/21 09:17:08;;;;;;;5.50;4.88;;;19.50;45.30;;;;;;4144368;28;20418;-46
2021/07/21 09:19:13;;;;;;;5.70;4.70;;;19.50;45.60;;;;;;4144260;28;20038;-48
2021/07/21 09:21:17;;;;;;;5.22;4.38;;;19.50;45.60;;;;;;4144418;28;20546;-48
2021/07/21 09:23:20;;;;;;;5.28;4.70;;;19.50;45.60;;;;;;4145513;28;20029;-48
2021/07/21 09:25:26;;;;;;;5.32;4.50;;;;;;;;;;4147814;28;20123;-45
2021/07/21 09:27:28;;;;;;;4.97;4.28;;;;;;;;;;4145106;28;20064;-46
2021/07/21 09:29:30;;;;;;;6.22;4.28;;;;;;;;;;4145163;28;20530;-51
2021/07/21 09:31:34;;;;;;;5.60;4.00;;;;;;;;;;4147379;28;20459;-49
2021/07/21 09:33:37;;;;;;;5.43;3.88;;;;;;;;;;4143994;28;20040;-50
2021/07/21 09:35:44;;;;;;;5.03;4.18;;;19.50;45.70;;;;;;4147372;28;20451;-51
2021/07/21 09:37:46;;;;;;;4.45;3.88;;;19.30;45.90;;;;;;4142230;28;20127;-49
2021/07/21 09:39:53;;;;;;;6.32;4.03;;;19.30;46.10;;;;;;4146171;28;20569;-51
2021/07/21 09:41:55;;;;;;;5.40;3.55;;;19.30;45.90;;;;;;4143420;28;20045;-48
2021/07/21 09:44:02;;;;;;;3.97;3.50;;;19.30;47.00;;;;;;4145586;28;20051;-47
2021/07/21 09:46:15;;;;;;;5.35;3.47;;;19.30;46.20;;;;;;4145851;28;20343;-51
2021/07/21 09:48:20;;;;;;;3.88;3.30;;;19.30;46.10;;;;;;4144359;28;20029;-51
2021/07/21 09:50:30;;;;;;;5.63;3.58;;;19.30;45.90;;;;;;4145430;28;20540;-53
2021/07/21 09:52:32;;;;;;;5.07;3.88;;;19.30;45.90;;;;;;4145496;28;20045;-48
2021/07/21 09:54:34;;;;;;;6.90;3.50;;;19.20;45.90;;;;;;4144018;28;20548;-54
2021/07/21 09:56:37;;;;;;;4.13;3.30;;;19.20;45.80;;;;;;4145840;28;20029;-46
2021/07/21 09:58:40;;;;;;;6.32;3.67;;;19.20;45.80;;;;;;4145728;28;20106;-51
2021/07/21 10:00:47;;;;;;;4.13;2.90;;;19.10;45.80;;;;;;4143392;28;20044;-47
2021/07/21 10:02:51;;;;;;;4.50;3.00;;;19.10;46.40;;;;;;4145384;28;20883;-47
2021/07/21 10:04:55;;;;;;;3.47;3.15;;;19.10;46.50;;;;;;4144688;28;20029;-51
2021/07/21 10:06:57;;;;;;;3.95;3.00;;;19.10;46.40;;;;;;4146384;28;20276;-49
2021/07/21 10:09:05;;;;;;;5.70;3.20;;;19.10;46.40;;;;;;4144714;28;20659;-47
2021/07/21 10:11:31;;;;;;;6.05;3.00;;;19.10;46.40;;;;;;4144197;28;20061;-52
2021/07/21 10:13:37;;;;;;;6.10;3.28;;;19.00;46.50;;;;;;4143728;28;20273;-45
2021/07/21 10:15:39;;;;;;;5.18;3.20;;;19.00;46.70;;;;;;4143886;28;20147;-50
2021/07/21 10:17:41;;;;;;;5.22;3.03;;;19.00;46.60;;;;;;4143546;28;20831;-48
2021/07/21 10:19:43;;;;;;;3.63;2.67;;;;;;;;;;4144584;28;20968;-47
2021/07/21 10:21:47;;;;;;;4.15;3.08;;;;;;;;;;4143396;28;20576;-48
2021/07/21 10:23:49;;;;;;;5.90;2.97;;;;;;;;;;4144619;28;20505;-46
2021/07/21 10:25:51;;;;;;;7.07;2.90;;;;;;;;;;4144237;28;20481;-47
2021/07/21 10:27:53;;;;;;;4.90;2.70;;;;;;;;;;4142946;28;20203;-48
2021/07/21 10:29:57;;;;;;;3.65;2.50;;;;;;;;;;4144633;28;20216;-45
2021/07/21 10:31:59;;;;;;;4.07;2.53;;;;;;;;;;4145142;28;20040;-52
2021/07/21 10:34:01;;;;;;;4.47;2.75;;;;;;;;;;4144492;28;20070;-50
2021/07/21 10:36:03;;;;;;;4.20;3.00;;;;;;;;;;4144236;28;20240;-47
2021/07/21 10:38:07;;;;;;;4.68;2.90;;;;;;;;;;4144801;28;20033;-47
2021/07/21 10:40:09;;;;;;;4.63;2.50;;;;;;;;;;4144071;28;20059;-48
2021/07/21 10:42:23;;;;;;;2.63;2.22;;;;;;;;;;4143281;28;20131;-49
2021/07/21 10:44:25;;;;;;;3.92;2.55;;;;;;;;;;4145442;28;20052;-46
2021/07/21 10:46:41;;;;;;;5.05;2.95;;;;;;;;;;4147879;28;20166;-53
2021/07/21 10:48:52;;;;;;;3.50;2.50;;;;;;;;;;4146534;28;20102;-50
2021/07/21 10:53:16;;;;;;;3.78;2.70;;;;;;;;;;4147586;28;20029;-52
2021/07/21 10:55:23;;;;;;;4.32;2.38;;;;;;;;;;4148787;28;20037;-51
2021/07/21 10:59:48;;;;;;;3.55;2.50;;;;;;;;;;4146329;28;20070;-49
2021/07/21 11:01:53;;;;;;;5.43;2.75;;;19.00;46.80;;;;;;4145188;28;20130;-55
2021/07/21 11:04:04;;;;;;;3.97;2.30;;;18.60;47.20;;;;;;4146455;28;20570;-47
2021/07/21 11:06:09;;;;;;;3.67;2.35;;;18.60;47.30;;;;;;4146608;28;20953;-46
2021/07/21 11:08:24;;;;;;;3.55;2.30;;;18.60;47.80;;;;;;4147129;28;20348;-50
2021/07/21 11:10:33;;;;;;;3.53;2.28;;;18.50;47.50;;;;;;4148701;28;20464;-47